DAUL/LOO METAR and TAF weather

Enter ICAO airport designator
Station Type Date Time Source
DAUL METAR 2021/03/08 12:00 UTC NOAA

DAUL 081200Z 00000KT 9999 SCT030 18/07 Q1013


Station Type Date Time Source
DAUL Decoded METAR 2021/03/08 12:00 UTC NOAA

Laghouat, Algeria (DAUL) 33-46N 002-56E 765M
Mar 08, 2021 - 07:00 AM EST / 2021.03.08 1200 UTC
Wind: Calm:0
Visibility: greater than 7 mile(s):0
Sky conditions: partly cloudy
Temperature: 64 F (18 C)
Dew Point: 44 F (7 C)
Relative Humidity: 48%
Pressure (altimeter): 29.91 in. Hg (1013 hPa)
ob: DAUL 081200Z 00000KT 9999 SCT030 18/07 Q1013
cycle: 12

Station Type Date Time Source
DAUL TAF 2017/11/09 18:03 UTC NOAA

TAF DAUL 091700Z 0918/1009 02012KT 9999 SCT030 SCT100 PROB40
TEMPO 0918/0924 35020G30KT 4000 -TSRA FEW030CB

Example: see airport list